Time;durP1;ratioP1;P1;durP2;ratioP2;P2;SDS_P1;SDS_P2;PMS_P1;PMS_P2;Temp;Humidity;BMP_temperature;BMP_pressure;BME280_temperature;BME280_humidity;BME280_pressure;Samples;Min_cycle;Max_cycle;Signal;HPM_P1;HPM_P2
2023/08/06 00:00:09;;;;;;;15.45;8.07;;;;;;;26.48;99.56;99080.88;5031062;28;20022;-69
2023/08/06 00:02:35;;;;;;;26.77;9.93;;;;;;;26.37;98.98;99050.59;5031040;28;20410;-68
2023/08/06 00:05:01;;;;;;;18.45;8.98;;;;;;;26.38;99.65;99078.78;5030951;28;20021;-68
2023/08/06 00:07:26;;;;;;;19.80;9.20;;;;;;;26.28;100.00;99079.25;5031235;28;20033;-68
2023/08/06 00:09:51;;;;;;;25.33;9.23;;;;;;;26.08;100.00;99039.72;5030729;28;20029;-68
2023/08/06 00:12:17;;;;;;;32.28;9.45;;;;;;;26.40;100.00;99077.78;5031395;28;20028;-68
2023/08/06 00:14:43;;;;;;;34.25;9.85;;;;;;;26.48;99.84;99080.00;5031250;28;20044;-67
2023/08/06 00:17:09;;;;;;;28.77;9.38;;;;;;;26.30;98.97;99035.03;5030394;28;20522;-67
2023/08/06 00:19:34;;;;;;;32.40;10.13;;;;;;;26.45;98.52;99054.56;5030907;28;20021;-68
2023/08/06 00:21:59;;;;;;;31.30;10.40;;;;;;;26.41;98.89;99060.13;5030991;28;20128;-66
2023/08/06 00:24:25;;;;;;;27.73;9.52;;;;;;;26.45;99.13;99065.16;5030196;28;20026;-67
2023/08/06 00:26:50;;;;;;;28.67;8.90;;;;;;;26.54;98.52;99071.75;5030744;28;20032;-67
2023/08/06 00:29:16;;;;;;;27.08;9.70;;;;;;;26.54;97.90;99077.06;5030566;28;20036;-67
2023/08/06 00:31:41;;;;;;;13.80;8.13;;;;;;;26.32;98.00;99049.06;4988440;28;20496;-66
2023/08/06 00:34:06;;;;;;;11.30;7.90;;;;;;;26.47;97.52;99079.16;4988531;28;20069;-68
2023/08/06 00:36:32;;;;;;;12.30;7.85;;;;;;;26.25;98.29;99054.75;4988634;28;20042;-67
2023/08/06 00:38:57;;;;;;;12.18;7.15;;;;;;;26.03;98.10;99028.50;4988578;28;20033;-67
2023/08/06 00:41:23;;;;;;;12.77;7.10;;;;;;;26.27;98.37;99080.19;4988502;28;20034;-67
2023/08/06 00:43:48;;;;;;;9.77;7.18;;;;;;;26.14;99.56;99081.72;4988493;28;20030;-64
2023/08/06 00:46:14;;;;;;;10.70;7.80;;;;;;;26.14;100.00;99077.31;4987982;28;20093;-67
2023/08/06 00:48:41;;;;;;;13.15;8.23;;;;;;;26.02;100.00;99061.16;4988341;28;20526;-67
2023/08/06 00:51:09;;;;;;;14.15;8.35;;;;;;;25.98;100.00;99076.31;4988377;28;20038;-66
2023/08/06 00:53:35;;;;;;;13.23;7.97;;;;;;;25.86;100.00;99056.63;4988418;28;20117;-67
2023/08/06 00:56:01;;;;;;;14.57;7.95;;;;;;;25.87;100.00;99075.97;4956016;28;20129;-67
2023/08/06 00:58:26;;;;;;;13.13;7.13;;;;;;;25.80;100.00;99072.78;4988124;28;20385;-66
2023/08/06 01:00:51;;;;;;;14.77;7.30;;;;;;;25.77;100.00;99072.91;4988085;28;20041;-66
2023/08/06 01:03:17;;;;;;;11.32;8.35;;;;;;;25.72;100.00;99064.34;5019628;28;20562;-67
2023/08/06 01:05:42;;;;;;;11.23;7.63;;;;;;;25.50;100.00;99023.97;5030283;28;20079;-67
2023/08/06 01:08:23;;;;;;;12.15;7.25;;;;;;;25.72;100.00;99059.06;5030288;28;20482;-66
2023/08/06 01:11:13;;;;;;;11.30;7.18;;;;;;;25.81;100.00;99054.19;5030285;28;20029;-66
2023/08/06 01:13:46;;;;;;;11.65;7.47;;;;;;;25.84;100.00;99054.06;5025342;28;20031;-66
2023/08/06 01:16:17;;;;;;;12.25;7.47;;;;;;;25.85;100.00;99054.91;5032297;28;20029;-68
2023/08/06 01:18:46;;;;;;;13.40;7.70;;;;;;;25.82;100.00;99044.47;5028792;28;20065;-67
2023/08/06 01:21:12;;;;;;;12.50;8.07;;;;;;;25.82;100.00;99048.00;5029971;28;20108;-67
2023/08/06 01:23:38;;;;;;;10.65;7.28;;;;;;;25.67;100.00;99028.44;5029486;28;20355;-66
2023/08/06 01:26:09;;;;;;;14.82;7.60;;;;;;;25.66;100.00;99045.22;5029976;28;20513;-66
2023/08/06 01:28:34;;;;;;;11.20;7.70;;;;;;;25.62;100.00;99037.50;5029908;28;20029;-66
2023/08/06 01:31:04;;;;;;;12.02;7.43;;;;;;;25.54;100.00;99005.34;5030109;28;20029;-66
2023/08/06 01:33:33;;;;;;;8.98;7.40;;;;;;;25.72;100.00;99032.63;5030498;28;20057;-66
2023/08/06 01:35:59;;;;;;;12.10;7.13;;;;;;;25.75;100.00;99025.41;5030255;28;20383;-67
2023/08/06 01:38:28;;;;;;;13.07;7.68;;;;;;;25.70;100.00;99023.94;5010593;28;20041;-68
2023/08/06 01:40:54;;;;;;;15.00;8.35;;;;;;;25.66;100.00;99023.25;5030002;28;20033;-68
2023/08/06 01:43:20;;;;;;;16.92;8.25;;;;;;;25.77;100.00;99014.75;5029809;28;20037;-67
2023/08/06 01:45:45;;;;;;;15.88;7.05;;;;;;;25.87;99.42;99008.13;5029243;28;20033;-66
2023/08/06 01:48:10;;;;;;;14.10;7.13;;;;;;;25.90;98.42;99007.94;5029403;28;20026;-67
2023/08/06 01:50:36;;;;;;;26.95;8.93;;;;;;;25.88;98.43;99007.16;5029401;28;20447;-68
2023/08/06 01:53:02;;;;;;;27.23;8.93;;;;;;;25.69;98.46;98975.50;5029544;28;20436;-68
2023/08/06 01:55:29;;;;;;;29.40;9.15;;;;;;;25.83;98.25;98998.59;5029778;28;20408;-67
2023/08/06 01:57:54;;;;;;;23.20;7.95;;;;;;;25.49;97.63;98945.63;5029069;28;20495;-67
2023/08/06 02:00:20;;;;;;;21.02;7.85;;;;;;;25.84;97.38;99002.97;5029840;28;20036;-67
2023/08/06 02:02:45;;;;;;;14.98;7.30;;;;;;;25.87;96.97;99008.13;5029450;28;20061;-68
2023/08/06 02:05:11;;;;;;;12.15;6.68;;;;;;;25.87;96.84;98988.72;5029532;28;20191;-66
2023/08/06 02:07:36;;;;;;;11.90;6.70;;;;;;;25.88;96.28;98991.28;5035113;28;20553;-67
2023/08/06 02:10:02;;;;;;;9.55;6.75;;;;;;;25.71;96.75;98970.13;5029391;28;20026;-67
2023/08/06 02:12:27;;;;;;;14.52;7.18;;;;;;;25.82;96.66;98986.31;5029496;28;20101;-69
2023/08/06 02:14:53;;;;;;;11.38;7.32;;;;;;;25.77;97.02;98981.28;5032746;28;20514;-67
2023/08/06 02:17:18;;;;;;;9.35;6.68;;;;;;;25.78;97.12;98984.75;5033175;28;20033;-68
2023/08/06 02:19:43;;;;;;;10.63;6.57;;;;;;;25.80;97.00;98981.09;5032966;28;20040;-68
2023/08/06 02:22:09;;;;;;;11.45;7.07;;;;;;;25.78;97.12;98979.47;5032764;28;20033;-67
2023/08/06 02:24:34;;;;;;;10.13;6.90;;;;;;;25.71;97.20;98978.94;5032767;28;20046;-67
2023/08/06 02:27:00;;;;;;;11.85;7.32;;;;;;;25.47;97.70;98952.78;5032433;28;20029;-67
2023/08/06 02:29:25;;;;;;;10.77;6.82;;;;;;;25.64;97.71;98982.81;5032733;28;20026;-67
2023/08/06 02:31:51;;;;;;;13.23;6.97;;;;;;;25.70;97.40;98985.16;5033089;28;20481;-67
2023/08/06 02:34:16;;;;;;;12.55;7.22;;;;;;;25.66;97.45;98981.78;5032508;28;20063;-63
2023/08/06 02:36:42;;;;;;;9.63;6.80;;;;;;;25.71;97.81;98978.06;5032333;28;20105;-67
2023/08/06 02:39:07;;;;;;;13.52;7.28;;;;;;;25.75;96.97;98980.47;5032871;28;20030;-67
2023/08/06 02:41:33;;;;;;;15.15;7.20;;;;;;;25.50;96.88;98951.78;5032238;28;20034;-67
2023/08/06 02:43:58;;;;;;;11.77;7.15;;;;;;;25.54;97.46;98989.47;5032421;28;20017;-68
2023/08/06 02:46:24;;;;;;;10.48;7.07;;;;;;;25.27;98.50;98971.34;5032347;28;20105;-68
2023/08/06 02:48:49;;;;;;;11.88;7.45;;;;;;;25.07;99.70;98967.00;5032268;28;20045;-68
2023/08/06 02:51:15;;;;;;;9.90;7.57;;;;;;;24.98;100.00;98971.78;5032511;28;20044;-68
2023/08/06 02:53:40;;;;;;;14.02;8.57;;;;;;;24.76;100.00;98947.31;5032187;28;20028;-68
2023/08/06 02:56:06;;;;;;;10.15;7.65;;;;;;;24.79;100.00;98968.31;5032363;28;20025;-68
2023/08/06 02:58:31;;;;;;;12.20;8.38;;;;;;;24.75;100.00;98977.25;5032299;28;20028;-68
2023/08/06 03:01:05;;;;;;;10.98;8.07;;;;;;;24.69;100.00;98988.97;5032242;28;20112;-68
2023/08/06 03:03:31;;;;;;;14.25;8.18;;;;;;;24.68;100.00;98987.25;5032266;28;20029;-69
2023/08/06 03:05:57;;;;;;;12.18;8.48;;;;;;;24.61;100.00;98988.41;5031953;28;20486;-69
2023/08/06 03:08:23;;;;;;;13.55;8.02;;;;;;;24.59;100.00;98985.84;5032061;28;20120;-69
2023/08/06 03:10:49;;;;;;;14.13;8.27;;;;;;;24.53;100.00;98983.50;5032390;28;20100;-68
2023/08/06 03:13:16;;;;;;;14.88;8.50;;;;;;;24.57;100.00;98985.06;5032004;28;20040;-66
2023/08/06 03:15:42;;;;;;;12.50;8.90;;;;;;;24.68;100.00;98988.09;5031880;28;20079;-71
2023/08/06 03:18:07;;;;;;;14.30;8.52;;;;;;;24.80;100.00;98983.19;5031683;28;20387;-65
2023/08/06 03:20:33;;;;;;;16.35;9.25;;;;;;;24.92;100.00;98972.06;5031809;28;20108;-66
2023/08/06 03:22:58;;;;;;;17.77;8.68;;;;;;;24.69;100.00;98946.75;5031610;28;20029;-65
2023/08/06 03:25:24;;;;;;;12.90;8.25;;;;;;;24.87;100.00;98976.72;5031794;28;20045;-66
2023/08/06 03:27:49;;;;;;;12.77;8.48;;;;;;;24.86;100.00;98988.19;5013793;28;20455;-69
2023/08/06 03:30:15;;;;;;;13.82;8.50;;;;;;;24.54;100.00;98935.09;5031984;28;20052;-65
2023/08/06 03:32:40;;;;;;;15.77;8.50;;;;;;;24.62;100.00;98980.44;5031750;28;20036;-65
2023/08/06 03:35:06;;;;;;;14.63;9.18;;;;;;;24.41;100.00;98976.97;5031842;28;20495;-67
2023/08/06 03:37:32;;;;;;;13.27;8.73;;;;;;;24.37;100.00;98983.31;5031486;28;20017;-65
2023/08/06 03:39:57;;;;;;;12.88;8.93;;;;;;;24.31;100.00;98967.75;5031714;28;20445;-63
2023/08/06 03:42:23;;;;;;;13.98;8.88;;;;;;;24.22;100.00;98953.19;5031555;28;20018;-68
2023/08/06 03:44:48;;;;;;;14.60;9.25;;;;;;;24.30;100.00;98968.66;5031464;28;20033;-65
2023/08/06 03:47:13;;;;;;;17.95;9.52;;;;;;;24.22;100.00;98971.66;5031044;28;20026;-65
2023/08/06 03:49:39;;;;;;;18.92;8.77;;;;;;;24.16;100.00;98964.00;5031311;28;20200;-65
2023/08/06 03:52:05;;;;;;;13.50;9.02;;;;;;;24.12;100.00;98963.28;5028257;28;20029;-68
2023/08/06 03:54:31;;;;;;;11.57;9.45;;;;;;;24.10;100.00;98974.81;5016298;28;20049;-65
2023/08/06 03:56:56;;;;;;;15.80;9.98;;;;;;;23.99;100.00;98968.22;5031807;28;20033;-67
2023/08/06 03:59:22;;;;;;;15.88;10.23;;;;;;;23.99;100.00;98962.94;5031493;28;20025;-65
2023/08/06 04:01:47;;;;;;;14.10;10.80;;;;;;;24.09;100.00;98973.97;5031764;28;20120;-65
2023/08/06 04:04:13;;;;;;;15.48;10.45;;;;;;;24.12;100.00;98973.81;5031830;28;20072;-64
2023/08/06 04:06:38;;;;;;;14.95;10.65;;;;;;;24.15;100.00;98973.69;5031592;28;20065;-65
2023/08/06 04:09:04;;;;;;;14.13;11.45;;;;;;;24.16;100.00;98972.78;5031400;28;20025;-68
2023/08/06 04:11:29;;;;;;;16.35;11.80;;;;;;;24.10;100.00;98965.13;5031549;28;20160;-64
2023/08/06 04:13:58;;;;;;;18.10;11.68;;;;;;;24.31;100.00;98994.13;5013689;28;20072;-68
2023/08/06 04:16:23;;;;;;;17.45;11.55;;;;;;;24.33;100.00;98990.50;5013224;28;20404;-65
2023/08/06 04:18:49;;;;;;;16.27;10.95;;;;;;;24.35;100.00;98991.28;5030863;28;20025;-66
2023/08/06 04:21:14;;;;;;;21.05;11.98;;;;;;;24.26;100.00;98996.94;5031168;28;20463;-70
2023/08/06 04:23:39;;;;;;;18.25;11.98;;;;;;;24.08;100.00;98968.75;5031291;28;20021;-66
2023/08/06 04:26:05;;;;;;;17.80;11.55;;;;;;;24.09;100.00;98981.88;5031170;28;20426;-65
2023/08/06 04:28:30;;;;;;;16.70;11.73;;;;;;;24.02;100.00;98983.06;5031399;28;20025;-66
2023/08/06 04:30:56;;;;;;;20.15;12.82;;;;;;;24.04;100.00;98987.34;5031336;28;20037;-66
2023/08/06 04:33:21;;;;;;;18.67;12.32;;;;;;;24.00;100.00;98992.78;5031181;28;20025;-66
2023/08/06 04:35:47;;;;;;;18.08;13.18;;;;;;;23.93;100.00;98986.09;5030274;28;20037;-66
2023/08/06 04:38:12;;;;;;;19.58;13.23;;;;;;;23.49;100.00;98907.91;5031187;28;20022;-65
2023/08/06 04:40:38;;;;;;;13.77;12.38;;;;;;;24.00;100.00;98985.75;5031052;28;20543;-66
2023/08/06 04:43:03;;;;;;;15.45;12.65;;;;;;;24.09;100.00;98981.88;5031175;28;20416;-65
2023/08/06 04:45:28;;;;;;;13.90;11.45;;;;;;;24.19;100.00;98980.53;5031191;28;20038;-67
2023/08/06 04:47:54;;;;;;;17.90;12.15;;;;;;;24.20;100.00;98945.34;5030842;28;20156;-65
2023/08/06 04:50:20;;;;;;;18.33;11.45;;;;;;;24.30;100.00;98947.56;5030666;28;20029;-68
2023/08/06 04:52:45;;;;;;;17.75;12.02;;;;;;;24.50;100.00;98965.16;5030828;28;20072;-69
2023/08/06 04:55:11;;;;;;;22.70;12.45;;;;;;;24.64;100.00;98975.94;5030897;28;20523;-65
2023/08/06 04:57:36;;;;;;;23.13;12.07;;;;;;;24.39;100.00;98928.72;4995429;28;20048;-65
2023/08/06 05:00:02;;;;;;;23.65;12.68;;;;;;;24.78;100.00;98977.13;5030759;28;20021;-65
2023/08/06 05:02:28;;;;;;;23.40;12.02;;;;;;;24.92;100.00;98968.59;5030678;28;20025;-65
2023/08/06 05:04:53;;;;;;;28.98;12.57;;;;;;;25.04;100.00;98960.09;5030409;28;20108;-65
2023/08/06 05:07:18;;;;;;;31.58;12.05;;;;;;;25.16;100.00;98963.91;5030644;28;20021;-68
2023/08/06 05:09:44;;;;;;;21.45;12.07;;;;;;;25.26;100.00;98966.97;5030346;28;20025;-65
2023/08/06 05:12:09;;;;;;;30.70;12.38;;;;;;;25.31;100.00;98968.50;5030712;28;20091;-66
2023/08/06 05:14:35;;;;;;;29.77;10.20;;;;;;;25.32;100.00;98970.22;5030633;28;20115;-65
2023/08/06 05:17:02;;;;;;;23.00;10.80;;;;;;;25.33;100.00;98977.22;5030504;28;20030;-65
2023/08/06 05:19:27;;;;;;;18.92;10.32;;;;;;;25.48;100.00;98988.84;5030614;28;20037;-66
2023/08/06 05:21:53;;;;;;;18.85;10.73;;;;;;;25.60;100.00;98982.09;5030253;28;20087;-66
2023/08/06 05:24:19;;;;;;;17.80;11.20;;;;;;;25.70;100.00;98971.94;5030106;28;20052;-66
2023/08/06 05:26:46;;;;;;;14.63;9.52;;;;;;;25.79;100.00;98970.63;5030348;28;20034;-67
2023/08/06 05:29:12;;;;;;;14.07;11.05;;;;;;;25.83;100.00;98964.22;5030492;28;20403;-68
2023/08/06 05:31:37;;;;;;;16.20;10.15;;;;;;;25.98;100.00;98975.81;5030599;28;20030;-65
2023/08/06 05:34:03;;;;;;;14.90;10.13;;;;;;;26.02;100.00;98981.81;5029922;28;20030;-67
2023/08/06 05:36:28;;;;;;;17.50;9.98;;;;;;;26.03;100.00;98981.72;5030028;28;20033;-67
2023/08/06 05:38:53;;;;;;;13.82;8.57;;;;;;;26.06;99.93;98978.13;5029917;28;20531;-66
2023/08/06 05:41:19;;;;;;;15.85;9.10;;;;;;;26.07;99.28;98972.75;5030589;28;20034;-66
2023/08/06 05:43:45;;;;;;;12.82;8.38;;;;;;;26.21;98.69;98977.34;5030459;28;20029;-70
2023/08/06 05:46:10;;;;;;;11.20;7.93;;;;;;;26.09;98.29;98946.22;5011250;28;20558;-66
2023/08/06 05:48:36;;;;;;;11.65;8.43;;;;;;;26.38;97.67;98967.66;5031589;28;20025;-66
2023/08/06 05:51:01;;;;;;;10.93;8.68;;;;;;;26.45;97.65;98963.75;5034018;28;20390;-66
2023/08/06 05:53:27;;;;;;;12.73;8.73;;;;;;;26.56;96.79;98955.25;5034075;28;20047;-66
2023/08/06 05:55:52;;;;;;;15.15;8.60;;;;;;;26.47;96.78;98925.69;5033925;28;20382;-66
2023/08/06 05:58:19;;;;;;;11.57;8.48;;;;;;;26.59;96.97;98918.03;5034096;28;20083;-66
2023/08/06 06:00:45;;;;;;;14.43;8.60;;;;;;;26.83;96.30;98939.69;5033924;28;20533;-68
2023/08/06 06:03:11;;;;;;;12.00;8.20;;;;;;;26.86;95.02;98947.47;5033820;28;20025;-65
2023/08/06 06:05:39;;;;;;;14.60;8.20;;;;;;;26.93;95.03;98932.06;5034161;28;20160;-67
2023/08/06 06:08:05;;;;;;;10.52;7.95;;;;;;;27.00;93.57;98930.81;5033725;28;20408;-66
2023/08/06 06:10:30;;;;;;;13.80;8.05;;;;;;;27.03;94.73;98928.00;5033232;28;20120;-66
2023/08/06 06:12:56;;;;;;;10.40;7.60;;;;;;;27.05;93.90;98922.59;5033823;28;20037;-68
2023/08/06 06:15:21;;;;;;;12.50;7.20;;;;;;;26.89;93.77;98910.25;5033750;28;20041;-67
2023/08/06 06:17:48;;;;;;;13.55;7.90;;;;;;;27.09;94.27;98926.78;5033451;28;20036;-66
2023/08/06 06:20:13;;;;;;;10.98;7.55;;;;;;;27.07;93.50;98923.38;5015816;28;20057;-65
2023/08/06 06:22:39;;;;;;;10.48;7.72;;;;;;;27.22;95.82;98922.50;5033827;28;20112;-66
2023/08/06 06:25:05;;;;;;;11.45;7.88;;;;;;;27.29;93.29;98920.34;5033265;28;20115;-69
2023/08/06 06:27:31;;;;;;;11.55;8.00;;;;;;;27.20;93.04;98889.94;5033619;28;20060;-67
2023/08/06 06:29:56;;;;;;;13.88;7.30;;;;;;;27.39;90.79;98923.31;5032154;28;20065;-66
2023/08/06 06:32:22;;;;;;;14.45;7.75;;;;;;;27.36;92.29;98924.38;5033291;28;20387;-68
2023/08/06 06:34:47;;;;;;;10.07;7.53;;;;;;;27.26;91.84;98934.63;5033052;28;20033;-66
2023/08/06 06:37:13;;;;;;;10.30;7.78;;;;;;;27.38;91.25;98926.94;5033336;28;20036;-65
2023/08/06 06:39:38;;;;;;;10.68;6.95;;;;;;;27.31;90.31;98901.75;5033313;28;20026;-65
2023/08/06 06:42:04;;;;;;;12.82;6.78;;;;;;;27.57;89.36;98938.19;5033285;28;20120;-69
2023/08/06 06:44:30;;;;;;;10.82;6.93;;;;;;;27.57;88.14;98938.19;5033167;28;20163;-65
2023/08/06 06:46:55;;;;;;;10.02;7.18;;;;;;;27.59;88.08;98930.16;5033104;28;20383;-65
2023/08/06 06:49:21;;;;;;;13.77;7.63;;;;;;;27.60;88.98;98921.25;5032902;28;20124;-69
2023/08/06 06:51:46;;;;;;;9.88;7.05;;;;;;;27.58;88.81;98928.47;5030408;28;20033;-67
2023/08/06 06:54:12;;;;;;;15.43;7.85;;;;;;;27.63;88.57;98914.94;5033053;28;20045;-68
2023/08/06 06:56:37;;;;;;;14.82;8.20;;;;;;;27.69;88.14;98914.56;5033009;28;20075;-66
2023/08/06 06:59:03;;;;;;;10.95;6.95;;;;;;;27.75;87.10;98916.84;5032560;28;20064;-67
2023/08/06 07:01:28;;;;;;;9.68;6.90;;;;;;;27.79;85.26;98923.72;5032865;28;20030;-66
2023/08/06 07:03:54;;;;;;;9.65;7.28;;;;;;;27.75;84.95;98930.13;5032670;28;20082;-65
2023/08/06 07:06:19;;;;;;;12.48;7.85;;;;;;;27.72;87.11;98935.63;5031559;28;20038;-65
2023/08/06 07:08:45;;;;;;;11.65;7.70;;;;;;;27.69;86.29;98933.13;5032829;28;20407;-68
2023/08/06 07:11:11;;;;;;;11.63;7.05;;;;;;;27.79;85.21;98944.91;5014865;28;20025;-66
2023/08/06 07:13:36;;;;;;;9.73;7.18;;;;;;;27.87;85.18;98931.19;5032525;28;20459;-70
2023/08/06 07:16:02;;;;;;;11.88;7.40;;;;;;;27.74;83.13;98901.91;5032314;28;20503;-65
2023/08/06 07:18:28;;;;;;;11.00;7.57;;;;;;;27.81;82.39;98918.31;5031835;28;20030;-66
2023/08/06 07:20:55;;;;;;;48.53;9.10;;;;;;;27.77;80.94;98918.47;5032359;28;20407;-66
2023/08/06 07:23:21;;;;;;;12.02;7.53;;;;;;;28.01;81.25;98956.91;5032533;28;20075;-68
2023/08/06 07:25:47;;;;;;;13.82;7.65;;;;;;;27.95;81.50;98938.69;5031924;28;20060;-66
2023/08/06 07:28:13;;;;;;;14.70;7.38;;;;;;;27.97;79.75;98950.06;5032405;28;20045;-66
2023/08/06 07:30:40;;;;;;;11.43;7.68;;;;;;;27.96;80.12;98943.06;5032496;28;20025;-66
2023/08/06 07:33:06;;;;;;;11.20;7.50;;;;;;;27.93;80.70;98955.53;5032216;28;20086;-69
2023/08/06 07:35:31;;;;;;;10.77;6.93;;;;;;;27.77;80.57;98952.09;5031915;28;20442;-66
2023/08/06 07:37:57;;;;;;;12.77;7.35;;;;;;;27.74;81.29;98950.47;5031694;28;20057;-66
2023/08/06 07:40:22;;;;;;;15.82;8.43;;;;;;;27.79;82.07;98960.84;5032170;28;20059;-66
2023/08/06 07:42:48;;;;;;;15.48;8.43;;;;;;;27.74;82.48;98965.56;5031923;28;20029;-66
2023/08/06 07:45:14;;;;;;;13.00;8.52;;;;;;;27.73;83.69;98977.09;5031700;28;20029;-66
2023/08/06 07:47:40;;;;;;;29.80;6.28;;;;;;;27.45;79.10;98997.22;5032000;28;20040;-65
2023/08/06 07:50:06;;;;;;;88.22;12.40;;;;;;;25.52;88.86;99092.59;5031934;28;20026;-69
